Time;durP1;ratioP1;P1;durP2;ratioP2;P2;SDS_P1;SDS_P2;PMS_P1;PMS_P2;Temp;Humidity;BMP_temperature;BMP_pressure;BME280_temperature;BME280_humidity;BME280_pressure;Samples;Min_cycle;Max_cycle;Signal;HPM_P1;HPM_P2
2022/03/24 00:00:30;;;;;;;16.40;15.03;;;6.50;85.00;;;;;;5054873;28;20645;-79
2022/03/24 00:02:57;;;;;;;17.70;16.00;;;6.60;85.90;;;;;;5045159;28;21012;-79
2022/03/24 00:05:23;;;;;;;18.00;16.47;;;6.60;86.20;;;;;;5050314;28;20621;-79
2022/03/24 00:07:50;;;;;;;17.40;16.00;;;6.50;86.20;;;;;;5052772;28;21203;-79
2022/03/24 00:10:18;;;;;;;17.87;16.10;;;6.60;86.70;;;;;;5053861;28;20634;-79
2022/03/24 00:12:45;;;;;;;18.43;16.90;;;6.20;85.80;;;;;;5051959;28;21009;-79
2022/03/24 00:15:12;;;;;;;18.47;16.80;;;6.20;88.10;;;;;;5056470;28;20641;-79
2022/03/24 00:17:38;;;;;;;21.13;17.20;;;6.30;88.90;;;;;;5051975;28;20662;-79
2022/03/24 00:20:06;;;;;;;18.83;17.13;;;6.40;88.00;;;;;;5043095;28;20665;-79
2022/03/24 00:22:33;;;;;;;18.97;17.27;;;6.20;88.40;;;;;;5053352;28;20705;-79
2022/03/24 00:25:00;;;;;;;19.23;17.50;;;6.10;90.30;;;;;;5050086;28;20656;-79
2022/03/24 00:27:28;;;;;;;21.23;16.97;;;5.60;91.00;;;;;;5056133;28;20626;-79
2022/03/24 00:29:55;;;;;;;19.20;17.60;;;6.10;91.60;;;;;;5053557;28;20657;-79
2022/03/24 00:32:22;;;;;;;21.03;17.27;;;6.20;91.60;;;;;;5053667;28;20679;-79
2022/03/24 00:34:48;;;;;;;20.50;18.70;;;6.00;91.10;;;;;;5057108;28;20695;-79
2022/03/24 00:37:17;;;;;;;19.10;17.40;;;5.50;91.30;;;;;;5056874;28;20667;-79
2022/03/24 00:39:43;;;;;;;20.63;18.53;;;5.80;92.50;;;;;;5056776;28;20752;-79
2022/03/24 00:42:11;;;;;;;19.30;17.37;;;5.70;92.60;;;;;;5055731;28;20626;-78
2022/03/24 00:44:42;;;;;;;19.40;17.67;;;6.00;92.90;;;;;;5052858;28;20633;-79
2022/03/24 00:47:10;;;;;;;19.70;18.13;;;5.20;92.70;;;;;;5051656;28;20987;-80
2022/03/24 00:49:36;;;;;;;19.80;18.23;;;5.70;92.90;;;;;;5051936;28;20667;-77
2022/03/24 00:52:05;;;;;;;19.00;17.40;;;5.20;93.60;;;;;;5051737;28;21303;-78
2022/03/24 00:54:31;;;;;;;18.50;17.00;;;5.50;94.00;;;;;;5050235;28;20628;-78
2022/03/24 00:56:58;;;;;;;20.70;18.57;;;5.50;94.70;;;;;;5050269;28;21129;-78
2022/03/24 00:59:25;;;;;;;20.40;18.30;;;5.60;95.50;;;;;;5051927;28;20616;-79
2022/03/24 01:01:54;;;;;;;21.47;19.20;;;5.30;95.70;;;;;;5051048;28;20657;-78
2022/03/24 01:04:21;;;;;;;18.50;16.63;;;5.60;96.20;;;;;;5049605;28;20644;-78
2022/03/24 01:06:48;;;;;;;19.83;17.97;;;5.50;96.60;;;;;;5054271;28;21186;-79
2022/03/24 01:09:15;;;;;;;22.07;20.13;;;5.70;96.30;;;;;;5052752;28;20641;-79
2022/03/24 01:11:42;;;;;;;19.17;17.50;;;5.50;96.50;;;;;;5049526;28;20663;-79
2022/03/24 01:14:09;;;;;;;19.53;17.87;;;5.50;96.70;;;;;;5049401;28;20630;-79
2022/03/24 01:16:35;;;;;;;20.53;18.53;;;5.10;97.50;;;;;;5051556;28;20662;-79
2022/03/24 01:19:05;;;;;;;19.80;18.00;;;4.80;97.90;;;;;;5048561;28;20728;-79
2022/03/24 01:21:33;;;;;;;20.03;18.20;;;5.30;98.40;;;;;;5057009;28;20650;-79
2022/03/24 01:24:00;;;;;;;19.30;17.37;;;5.20;99.00;;;;;;5049462;28;20640;-78
2022/03/24 01:26:27;;;;;;;19.33;17.63;;;5.40;99.60;;;;;;5052124;28;20643;-77
2022/03/24 01:28:54;;;;;;;19.33;17.63;;;5.10;99.90;;;;;;5050576;28;20677;-78
2022/03/24 01:31:21;;;;;;;18.87;17.27;;;5.00;99.90;;;;;;5046922;28;20657;-78
2022/03/24 01:33:48;;;;;;;18.73;17.13;;;5.00;99.90;;;;;;5051583;28;20632;-77
2022/03/24 01:36:18;;;;;;;20.73;18.67;;;4.70;99.50;;;;;;5052586;28;20715;-79
2022/03/24 01:38:45;;;;;;;17.57;15.93;;;4.60;99.70;;;;;;5052288;28;20625;-79
2022/03/24 01:41:12;;;;;;;18.07;16.57;;;5.00;99.90;;;;;;5056754;28;20663;-79
2022/03/24 01:43:42;;;;;;;20.03;18.27;;;4.90;99.90;;;;;;5051729;28;20632;-78
2022/03/24 01:46:09;;;;;;;19.90;18.30;;;4.80;99.90;;;;;;5053016;28;21257;-78
2022/03/24 01:48:35;;;;;;;19.43;17.63;;;4.80;99.90;;;;;;5055122;28;20633;-78
2022/03/24 01:51:02;;;;;;;19.67;18.03;;;5.10;99.90;;;;;;5050910;28;20663;-78
2022/03/24 01:53:30;;;;;;;20.53;18.90;;;5.00;99.90;;;;;;5051310;28;20660;-79
2022/03/24 01:55:58;;;;;;;18.97;17.47;;;4.80;99.90;;;;;;5051076;28;20625;-78
2022/03/24 01:58:25;;;;;;;18.77;17.07;;;4.60;99.90;;;;;;5050037;28;21269;-77
2022/03/24 02:00:52;;;;;;;19.30;17.70;;;4.60;99.90;;;;;;5052523;28;20652;-80
2022/03/24 02:03:22;;;;;;;19.53;17.87;;;4.60;99.90;;;;;;5051756;28;20657;-79
2022/03/24 02:05:49;;;;;;;19.87;18.20;;;4.80;99.90;;;;;;5053080;28;20616;-80
2022/03/24 02:08:16;;;;;;;20.03;18.47;;;4.80;99.90;;;;;;5052104;28;20647;-79
2022/03/24 02:10:44;;;;;;;20.17;18.47;;;4.50;99.90;;;;;;5045822;28;20688;-79
2022/03/24 02:13:10;;;;;;;20.13;18.50;;;4.20;99.90;;;;;;5053101;28;20624;-79
2022/03/24 02:15:38;;;;;;;21.17;19.47;;;4.50;99.90;;;;;;5050825;28;21201;-79
2022/03/24 02:18:10;;;;;;;19.47;17.93;;;4.40;99.90;;;;;;5049926;28;20652;-79
2022/03/24 02:20:37;;;;;;;20.53;18.70;;;4.30;99.90;;;;;;5049444;28;20666;-79
2022/03/24 02:23:05;;;;;;;18.87;17.30;;;4.30;99.90;;;;;;5051427;28;20644;-79
2022/03/24 02:25:33;;;;;;;18.90;17.30;;;4.60;99.90;;;;;;5049634;28;20624;-79
2022/03/24 02:28:01;;;;;;;19.07;17.53;;;4.10;99.90;;;;;;5052023;28;20651;-79
2022/03/24 02:30:29;;;;;;;21.60;19.57;;;4.20;99.90;;;;;;5048457;28;20742;-79
2022/03/24 02:32:56;;;;;;;21.63;19.77;;;4.60;99.90;;;;;;5053316;28;20628;-79
2022/03/24 02:35:23;;;;;;;21.70;19.70;;;4.30;99.90;;;;;;5046576;28;20640;-79
2022/03/24 02:37:50;;;;;;;21.00;19.23;;;4.50;99.90;;;;;;5055032;28;20714;-79
2022/03/24 02:40:19;;;;;;;21.93;20.00;;;4.30;99.90;;;;;;5052171;28;20655;-79
2022/03/24 02:42:46;;;;;;;20.00;18.30;;;4.30;99.90;;;;;;5041733;28;20626;-79
2022/03/24 02:45:13;;;;;;;22.00;19.93;;;4.20;99.90;;;;;;5051914;28;20665;-79
2022/03/24 02:47:40;;;;;;;21.17;18.97;;;4.30;99.90;;;;;;5056912;28;20984;-79
2022/03/24 02:50:09;;;;;;;21.63;19.83;;;4.10;99.90;;;;;;5048520;28;20669;-79
2022/03/24 02:52:35;;;;;;;22.33;20.33;;;4.20;99.90;;;;;;5048112;28;20736;-80
2022/03/24 02:55:02;;;;;;;21.07;19.40;;;4.20;99.90;;;;;;5052338;28;20635;-80
2022/03/24 02:57:31;;;;;;;21.20;19.50;;;3.80;99.90;;;;;;5053734;28;20663;-79
2022/03/24 02:59:58;;;;;;;20.80;19.10;;;4.20;99.90;;;;;;5054405;28;20657;-79
2022/03/24 03:02:24;;;;;;;21.87;19.70;;;4.00;99.90;;;;;;5051871;28;20635;-79
2022/03/24 03:04:53;;;;;;;20.97;19.27;;;3.90;99.90;;;;;;5050313;28;20704;-79
2022/03/24 03:07:21;;;;;;;20.40;17.77;;;4.20;99.90;;;;;;5051718;28;20987;-79
2022/03/24 03:09:48;;;;;;;22.77;20.83;;;4.20;99.90;;;;;;5045372;28;20662;-79
2022/03/24 03:12:16;;;;;;;20.80;18.80;;;4.00;99.90;;;;;;5048935;28;20655;-79
2022/03/24 03:14:46;;;;;;;21.53;19.60;;;4.00;99.90;;;;;;5050553;28;21147;-79
2022/03/24 03:17:15;;;;;;;21.67;19.83;;;3.70;99.90;;;;;;5049867;28;20667;-79
2022/03/24 03:19:42;;;;;;;21.77;19.77;;;4.00;99.90;;;;;;5039947;28;20663;-79
2022/03/24 03:22:10;;;;;;;22.93;20.97;;;3.90;99.90;;;;;;5053912;28;20638;-79
2022/03/24 03:24:39;;;;;;;21.33;19.23;;;3.90;99.90;;;;;;5046857;28;21105;-78
2022/03/24 03:27:07;;;;;;;21.47;19.23;;;3.80;99.90;;;;;;5047460;28;20675;-79
2022/03/24 03:29:34;;;;;;;22.30;20.43;;;3.70;99.90;;;;;;5054478;28;21242;-79
2022/03/24 03:32:02;;;;;;;22.17;20.10;;;3.90;99.90;;;;;;5055258;28;20628;-79
2022/03/24 03:34:29;;;;;;;21.87;19.97;;;3.80;99.90;;;;;;5055021;28;20628;-79
2022/03/24 03:36:59;;;;;;;21.80;19.10;;;4.00;99.90;;;;;;5048637;28;20634;-79
2022/03/24 03:39:26;;;;;;;21.70;19.60;;;3.80;99.90;;;;;;5044522;28;20706;-80
2022/03/24 03:41:54;;;;;;;21.30;19.50;;;3.70;99.90;;;;;;5046425;28;20631;-79
2022/03/24 03:44:21;;;;;;;20.83;19.10;;;3.50;99.90;;;;;;5052636;28;21266;-78
2022/03/24 03:46:48;;;;;;;20.93;19.03;;;3.90;99.90;;;;;;5055480;28;20737;-79
2022/03/24 03:49:16;;;;;;;22.30;20.50;;;3.80;99.90;;;;;;5049965;28;21196;-79
2022/03/24 03:51:43;;;;;;;21.37;19.50;;;3.80;99.90;;;;;;5047762;28;20626;-79
2022/03/24 03:54:10;;;;;;;22.47;20.40;;;3.60;99.90;;;;;;5048801;28;20654;-79
2022/03/24 03:56:37;;;;;;;22.00;20.20;;;3.70;99.90;;;;;;5051495;28;21078;-79
2022/03/24 03:59:04;;;;;;;21.33;19.43;;;3.60;99.90;;;;;;5056083;28;20703;-79
2022/03/24 04:01:30;;;;;;;21.70;19.70;;;3.40;99.90;;;;;;5051202;28;20647;-79
2022/03/24 04:03:58;;;;;;;20.40;18.80;;;3.40;99.90;;;;;;5050286;28;20624;-79
2022/03/24 04:06:26;;;;;;;23.70;21.13;;;3.20;99.90;;;;;;5046628;28;20627;-79
2022/03/24 04:08:53;;;;;;;22.00;19.70;;;3.60;99.90;;;;;;5050480;28;20639;-80
2022/03/24 04:11:20;;;;;;;20.93;19.30;;;3.70;99.90;;;;;;5045244;28;20678;-79
2022/03/24 04:13:47;;;;;;;21.43;19.43;;;3.30;99.90;;;;;;5043656;28;20616;-79
2022/03/24 04:16:13;;;;;;;21.60;19.70;;;3.40;99.90;;;;;;5045852;28;20655;-79
2022/03/24 04:18:41;;;;;;;21.80;20.10;;;3.30;99.90;;;;;;5045217;28;20673;-79
2022/03/24 04:21:09;;;;;;;21.13;19.53;;;3.20;99.90;;;;;;5048557;28;21263;-79
2022/03/24 04:23:39;;;;;;;22.50;20.50;;;3.50;99.90;;;;;;5045967;28;20630;-79
2022/03/24 04:26:06;;;;;;;24.20;22.10;;;3.00;99.90;;;;;;5050155;28;20620;-79
2022/03/24 04:28:33;;;;;;;23.27;21.07;;;3.50;99.90;;;;;;5055657;28;20645;-79
2022/03/24 04:31:00;;;;;;;21.93;20.13;;;3.40;99.90;;;;;;5047708;28;20666;-79
2022/03/24 04:33:27;;;;;;;22.00;20.20;;;3.60;99.90;;;;;;5052085;28;20630;-79
2022/03/24 04:35:54;;;;;;;21.87;19.97;;;3.50;99.90;;;;;;5049973;28;20626;-79
2022/03/24 04:38:21;;;;;;;21.17;19.17;;;3.30;99.90;;;;;;5049456;28;20666;-79
2022/03/24 04:40:49;;;;;;;21.10;19.20;;;3.20;99.90;;;;;;5054237;28;20659;-79
2022/03/24 04:43:16;;;;;;;20.33;18.40;;;3.30;99.90;;;;;;5054727;28;20627;-79
2022/03/24 04:45:43;;;;;;;22.53;20.63;;;3.40;99.90;;;;;;5053922;28;20654;-79
2022/03/24 04:48:10;;;;;;;21.80;19.87;;;3.10;99.90;;;;;;5055780;28;21167;-78
2022/03/24 04:50:37;;;;;;;21.70;19.93;;;3.00;99.90;;;;;;5054643;28;20980;-79
2022/03/24 04:53:04;;;;;;;21.97;19.73;;;3.40;99.90;;;;;;5052343;28;20637;-79
2022/03/24 04:55:31;;;;;;;22.93;20.83;;;3.20;99.90;;;;;;5055240;28;21157;-79
2022/03/24 04:57:59;;;;;;;22.57;20.50;;;3.10;99.90;;;;;;5047578;28;20685;-78
2022/03/24 05:00:26;;;;;;;22.57;20.50;;;3.30;99.90;;;;;;5049649;28;20657;-79
2022/03/24 05:02:53;;;;;;;21.20;19.40;;;3.30;99.90;;;;;;5039724;28;20626;-78
2022/03/24 05:05:19;;;;;;;22.47;20.67;;;3.10;99.90;;;;;;5052707;28;20642;-78
2022/03/24 05:07:46;;;;;;;20.60;18.60;;;3.00;99.90;;;;;;5053111;28;20622;-79
2022/03/24 05:10:13;;;;;;;22.43;20.60;;;3.10;99.90;;;;;;5044418;28;20646;-79
2022/03/24 05:12:41;;;;;;;24.00;21.97;;;3.10;99.90;;;;;;5051588;28;20643;-79
2022/03/24 05:15:13;;;;;;;23.33;21.50;;;3.30;99.90;;;;;;5050419;28;21184;-79
2022/03/24 05:17:41;;;;;;;22.93;21.00;;;2.90;99.90;;;;;;5048763;28;20758;-80
2022/03/24 05:20:09;;;;;;;21.37;19.53;;;2.80;99.90;;;;;;5049218;28;20695;-79
2022/03/24 05:22:36;;;;;;;21.00;19.27;;;3.00;99.90;;;;;;5047438;28;20963;-79
2022/03/24 05:25:05;;;;;;;23.93;21.80;;;3.20;99.90;;;;;;5051651;28;20634;-79
2022/03/24 05:27:32;;;;;;;22.90;20.90;;;3.10;99.90;;;;;;5050343;28;20635;-79
2022/03/24 05:29:59;;;;;;;22.70;20.90;;;3.10;99.90;;;;;;5053059;28;21010;-79
2022/03/24 05:32:28;;;;;;;23.20;21.27;;;3.20;99.90;;;;;;5047480;28;20630;-80
2022/03/24 05:34:55;;;;;;;23.10;21.03;;;2.60;99.90;;;;;;5050118;28;20721;-79
2022/03/24 05:37:22;;;;;;;23.37;21.27;;;3.10;99.90;;;;;;5049114;28;20641;-80
2022/03/24 05:39:50;;;;;;;23.37;21.30;;;3.00;99.90;;;;;;5057849;28;20649;-79
2022/03/24 05:42:17;;;;;;;22.27;20.00;;;3.10;99.90;;;;;;5052387;28;21138;-79
2022/03/24 05:44:43;;;;;;;23.30;21.50;;;3.00;99.90;;;;;;5050881;28;20622;-79
2022/03/24 05:47:11;;;;;;;21.80;20.00;;;3.00;99.90;;;;;;5049637;28;20626;-79
2022/03/24 05:49:39;;;;;;;23.30;21.40;;;2.90;99.90;;;;;;5051464;28;21126;-79
2022/03/24 05:52:07;;;;;;;21.43;19.73;;;3.00;99.90;;;;;;5049810;28;21020;-79
2022/03/24 05:54:33;;;;;;;22.17;20.27;;;3.10;99.90;;;;;;5048082;28;20626;-79
2022/03/24 05:57:00;;;;;;;22.67;20.43;;;3.20;99.90;;;;;;5053404;28;20657;-79
2022/03/24 05:59:27;;;;;;;24.63;22.13;;;3.00;99.90;;;;;;5055564;28;21189;-79
2022/03/24 06:01:54;;;;;;;23.63;21.53;;;3.00;99.90;;;;;;5054194;28;21095;-79
2022/03/24 06:04:23;;;;;;;22.47;20.27;;;3.20;99.90;;;;;;5054016;28;20637;-78
2022/03/24 06:06:56;;;;;;;23.63;21.13;;;3.20;99.90;;;;;;5048533;28;20657;-78
2022/03/24 06:09:23;;;;;;;22.50;20.27;;;3.10;99.90;;;;;;5052028;28;20704;-79
2022/03/24 06:11:52;;;;;;;23.80;21.70;;;3.20;99.90;;;;;;5053203;28;20674;-79
2022/03/24 06:14:20;;;;;;;23.63;21.60;;;3.30;99.90;;;;;;5047710;28;20642;-79
2022/03/24 06:16:47;;;;;;;24.13;22.13;;;3.40;99.90;;;;;;5047800;28;20683;-78
2022/03/24 06:19:15;;;;;;;34.03;22.57;;;3.40;99.90;;;;;;5047887;28;20675;-80
2022/03/24 06:21:41;;;;;;;29.40;21.60;;;3.50;99.90;;;;;;5046267;28;20704;-79
2022/03/24 06:24:09;;;;;;;24.03;21.70;;;3.70;99.90;;;;;;5045542;28;20640;-79
2022/03/24 06:26:37;;;;;;;22.80;20.60;;;3.70;99.90;;;;;;5043824;28;21295;-79
2022/03/24 06:29:04;;;;;;;23.67;21.70;;;3.80;99.90;;;;;;5042562;28;20667;-79
2022/03/24 06:31:32;;;;;;;22.93;20.93;;;3.90;99.90;;;;;;5046239;28;20622;-80
2022/03/24 06:33:59;;;;;;;22.50;20.70;;;3.70;99.90;;;;;;5051717;28;20615;-80
2022/03/24 06:36:26;;;;;;;24.40;21.90;;;4.10;99.90;;;;;;5049058;28;20656;-79
2022/03/24 06:38:53;;;;;;;24.03;21.43;;;4.00;99.90;;;;;;5047149;28;20862;-80
2022/03/24 06:41:22;;;;;;;21.60;19.70;;;4.10;99.90;;;;;;5047106;28;20718;-80
2022/03/24 06:43:50;;;;;;;23.57;21.57;;;4.20;99.90;;;;;;5038710;28;20660;-80
2022/03/24 06:46:16;;;;;;;23.67;21.37;;;3.90;99.90;;;;;;5045578;28;20631;-79
2022/03/24 06:48:43;;;;;;;21.70;19.90;;;4.40;99.90;;;;;;5037264;28;20635;-80
2022/03/24 06:51:10;;;;;;;20.63;18.97;;;4.40;99.90;;;;;;5046324;28;20658;-80
2022/03/24 06:53:37;;;;;;;21.80;19.80;;;4.70;99.90;;;;;;5046373;28;20632;-80
2022/03/24 06:56:05;;;;;;;22.57;20.67;;;4.60;99.90;;;;;;5046973;28;20983;-80
2022/03/24 06:58:33;;;;;;;22.53;20.30;;;4.80;99.90;;;;;;5046816;28;21181;-80
2022/03/24 07:01:00;;;;;;;23.23;20.90;;;4.70;99.90;;;;;;5045671;28;21019;-80
2022/03/24 07:03:27;;;;;;;23.33;20.90;;;5.00;99.90;;;;;;5046639;28;20627;-80
2022/03/24 07:05:53;;;;;;;21.57;19.73;;;4.80;99.90;;;;;;5050080;28;20618;-79
2022/03/24 07:08:20;;;;;;;23.40;21.13;;;5.00;99.90;;;;;;5046604;28;21734;-77
2022/03/24 07:10:47;;;;;;;28.63;22.23;;;5.50;99.90;;;;;;5041157;28;20741;-78
2022/03/24 07:13:14;;;;;;;24.20;21.70;;;5.30;99.90;;;;;;5044064;28;20648;-79
2022/03/24 07:15:42;;;;;;;25.07;22.33;;;5.20;99.90;;;;;;5047546;28;20641;-78
2022/03/24 07:18:10;;;;;;;23.70;21.50;;;5.30;99.80;;;;;;5048852;28;20653;-78
2022/03/24 07:20:36;;;;;;;21.43;19.43;;;6.00;99.80;;;;;;5044406;28;20635;-78
2022/03/24 07:23:03;;;;;;;21.07;19.27;;;6.00;99.70;;;;;;5045057;28;21003;-78
2022/03/24 07:25:31;;;;;;;21.30;19.20;;;6.00;99.00;;;;;;5045374;28;20630;-78
2022/03/24 07:27:58;;;;;;;25.60;20.87;;;5.90;99.00;;;;;;5034479;28;20685;-78
2022/03/24 07:30:25;;;;;;;24.60;21.97;;;6.00;98.80;;;;;;5045236;28;20614;-78
2022/03/24 07:32:55;;;;;;;23.83;21.60;;;6.40;98.60;;;;;;5044462;28;20620;-78
2022/03/24 07:35:25;;;;;;;23.17;21.07;;;5.90;98.50;;;;;;5045627;28;20636;-79
2022/03/24 07:37:52;;;;;;;25.77;23.23;;;6.40;98.40;;;;;;5044743;28;20673;-79
2022/03/24 07:40:21;;;;;;;23.63;21.33;;;6.30;97.90;;;;;;5043397;28;20654;-79
2022/03/24 07:42:49;;;;;;;23.33;20.83;;;6.30;97.50;;;;;;5046989;28;20681;-80
2022/03/24 07:45:15;;;;;;;25.17;22.53;;;6.90;97.40;;;;;;5034445;28;20626;-79
2022/03/24 07:48:06;;;;;;;26.63;23.93;;;7.20;96.60;;;;;;5043582;28;20646;-79
2022/03/24 07:50:32;;;;;;;24.87;22.57;;;7.40;96.20;;;;;;5044421;28;20630;-79
2022/03/24 07:53:05;;;;;;;23.73;21.47;;;7.50;96.00;;;;;;5045650;28;20683;-79
2022/03/24 07:55:37;;;;;;;23.03;21.03;;;7.60;95.40;;;;;;5044926;28;21176;-79
2022/03/24 07:58:04;;;;;;;23.17;20.73;;;7.70;95.20;;;;;;5044626;28;20642;-79
2022/03/24 08:00:31;;;;;;;23.70;21.27;;;7.60;94.40;;;;;;5047472;28;20630;-78
2022/03/24 08:02:58;;;;;;;24.67;22.33;;;7.90;94.40;;;;;;5050239;28;20634;-79
2022/03/24 08:05:27;;;;;;;22.03;19.90;;;8.00;94.20;;;;;;5049626;28;20629;-78
2022/03/24 08:07:56;;;;;;;24.80;22.47;;;8.10;93.60;;;;;;5050357;28;21253;-80
2022/03/24 08:10:23;;;;;;;23.47;21.13;;;8.50;93.30;;;;;;5038399;28;20661;-80
2022/03/24 08:12:52;;;;;;;25.23;22.03;;;8.50;93.20;;;;;;5039558;28;20627;-80
2022/03/24 08:15:20;;;;;;;23.07;20.87;;;8.10;92.70;;;;;;5049939;28;20639;-80
2022/03/24 08:17:47;;;;;;;23.50;21.20;;;8.60;92.60;;;;;;5046022;28;21133;-79
2022/03/24 08:20:15;;;;;;;23.37;21.10;;;8.70;92.70;;;;;;5041497;28;21022;-80
2022/03/24 08:22:43;;;;;;;24.07;21.80;;;8.80;92.20;;;;;;5050341;28;20629;-80
2022/03/24 08:25:10;;;;;;;23.87;21.30;;;8.80;92.00;;;;;;5049310;28;20628;-80
2022/03/24 08:27:37;;;;;;;22.73;20.60;;;9.10;91.70;;;;;;5038586;28;20653;-80
2022/03/24 08:30:06;;;;;;;25.17;21.33;;;9.40;91.70;;;;;;5047654;28;20629;-80
2022/03/24 08:32:33;;;;;;;23.80;21.50;;;9.40;91.30;;;;;;5050231;28;20637;-80
2022/03/24 08:35:00;;;;;;;24.87;22.07;;;9.50;91.00;;;;;;5050648;28;20640;-80
2022/03/24 08:37:26;;;;;;;26.87;20.80;;;9.80;91.00;;;;;;5048880;28;20660;-80
2022/03/24 08:39:55;;;;;;;23.67;21.17;;;9.30;90.40;;;;;;5048200;28;20661;-80
2022/03/24 08:42:21;;;;;;;24.40;21.80;;;9.70;90.40;;;;;;5048653;28;20617;-80
2022/03/24 08:44:48;;;;;;;25.67;22.87;;;10.00;89.50;;;;;;5037380;28;20984;-80
2022/03/24 08:47:15;;;;;;;22.77;20.33;;;10.10;89.20;;;;;;5044291;28;20648;-79
2022/03/24 08:49:42;;;;;;;22.90;20.60;;;10.10;88.60;;;;;;5045738;28;20993;-79
2022/03/24 08:52:10;;;;;;;23.40;21.00;;;10.40;88.00;;;;;;5047351;28;20720;-80
2022/03/24 08:54:37;;;;;;;25.07;22.10;;;10.60;88.30;;;;;;5047583;28;21191;-80
2022/03/24 08:57:05;;;;;;;22.80;20.37;;;10.60;87.60;;;;;;5048603;28;20657;-80
2022/03/24 08:59:32;;;;;;;24.97;21.63;;;10.70;87.00;;;;;;5047628;28;21242;-80
2022/03/24 09:01:59;;;;;;;22.67;20.57;;;10.80;86.70;;;;;;5047854;28;20668;-80
2022/03/24 09:04:27;;;;;;;23.23;20.93;;;10.90;86.10;;;;;;5045652;28;21250;-78
2022/03/24 09:06:54;;;;;;;25.77;22.97;;;11.10;85.40;;;;;;5048863;28;20661;-79
2022/03/24 09:09:22;;;;;;;26.67;21.70;;;11.20;84.80;;;;;;5047263;28;20621;-78
2022/03/24 09:11:49;;;;;;;26.17;23.37;;;11.20;84.00;;;;;;5048155;28;20629;-78
2022/03/24 09:14:17;;;;;;;24.63;22.10;;;11.40;83.50;;;;;;5048413;28;21163;-78
2022/03/24 09:16:45;;;;;;;32.33;24.80;;;11.50;83.30;;;;;;5047519;28;21023;-79
2022/03/24 09:19:12;;;;;;;26.00;23.27;;;11.60;82.80;;;;;;5051049;28;21158;-78
2022/03/24 09:21:39;;;;;;;25.07;22.37;;;11.80;82.10;;;;;;5049629;28;20643;-78
2022/03/24 09:24:06;;;;;;;24.53;22.17;;;11.90;82.40;;;;;;5049478;28;20684;-79
2022/03/24 09:26:33;;;;;;;27.57;24.63;;;12.10;81.70;;;;;;5047088;28;20650;-78
2022/03/24 09:29:01;;;;;;;24.43;22.20;;;12.10;80.90;;;;;;5042614;28;20638;-79
2022/03/24 09:31:29;;;;;;;26.83;21.87;;;12.30;80.80;;;;;;5048555;28;20654;-78
2022/03/24 09:33:56;;;;;;;26.57;23.77;;;12.40;80.90;;;;;;5047156;28;20626;-78
2022/03/24 09:36:23;;;;;;;25.87;23.37;;;12.60;80.20;;;;;;5048384;28;20654;-79
2022/03/24 09:38:49;;;;;;;25.47;22.73;;;12.70;79.10;;;;;;5046699;28;20736;-79
2022/03/24 09:41:18;;;;;;;25.30;22.57;;;12.80;79.00;;;;;;5048070;28;21176;-80
2022/03/24 09:43:46;;;;;;;26.93;24.03;;;13.00;78.00;;;;;;5048771;28;20626;-79
2022/03/24 09:46:14;;;;;;;28.03;25.23;;;13.10;77.90;;;;;;5040051;28;20853;-80
2022/03/24 09:48:43;;;;;;;31.33;23.00;;;13.30;77.10;;;;;;5045969;28;20634;-80
2022/03/24 09:51:11;;;;;;;26.50;22.47;;;13.40;77.70;;;;;;5049542;28;20640;-80
2022/03/24 09:53:39;;;;;;;25.93;23.30;;;13.60;77.90;;;;;;5045117;28;21213;-80
2022/03/24 09:56:06;;;;;;;25.57;22.97;;;13.80;76.10;;;;;;5047076;28;20622;-80
2022/03/24 09:58:34;;;;;;;24.37;21.87;;;13.90;75.60;;;;;;5038432;28;20630;-80
2022/03/24 10:01:02;;;;;;;26.60;23.43;;;14.10;75.20;;;;;;5040960;28;20666;-80
2022/03/24 10:03:29;;;;;;;27.40;24.37;;;14.30;75.50;;;;;;5048457;28;21191;-80
2022/03/24 10:06:00;;;;;;;26.33;23.63;;;14.50;74.50;;;;;;5048682;28;20671;-80
2022/03/24 10:08:28;;;;;;;26.47;23.50;;;14.70;73.80;;;;;;5046718;28;21152;-80
2022/03/24 10:10:59;;;;;;;23.53;21.13;;;15.10;74.20;;;;;;5038825;28;20613;-80
2022/03/24 10:13:41;;;;;;;30.30;24.20;;;15.40;73.50;;;;;;5047734;28;20641;-80
2022/03/24 10:16:08;;;;;;;26.33;23.70;;;15.50;72.40;;;;;;5046719;28;20707;-80
2022/03/24 10:18:35;;;;;;;22.67;20.17;;;15.80;72.10;;;;;;5045356;28;20632;-80
2022/03/24 10:21:04;;;;;;;26.00;22.43;;;16.10;71.70;;;;;;5047026;28;20669;-80
2022/03/24 10:23:34;;;;;;;25.90;23.20;;;16.30;71.50;;;;;;5056974;28;20948;-80
2022/03/24 10:26:05;;;;;;;25.63;21.40;;;16.70;70.70;;;;;;5048563;28;20692;-79
2022/03/24 10:28:32;;;;;;;25.10;22.33;;;17.00;69.20;;;;;;5033681;28;20650;-79
2022/03/24 10:30:59;;;;;;;25.60;23.00;;;17.20;69.40;;;;;;5042681;28;20643;-79
2022/03/24 10:33:28;;;;;;;25.33;22.80;;;17.50;69.00;;;;;;5048356;28;20630;-81
2022/03/24 10:36:10;;;;;;;25.77;23.17;;;17.70;67.30;;;;;;5041868;28;20751;-79
2022/03/24 10:38:40;;;;;;;28.43;24.20;;;18.00;67.00;;;;;;5045994;28;20622;-80
2022/03/24 10:41:18;;;;;;;27.23;24.53;;;18.30;67.40;;;;;;5046035;28;20649;-81
2022/03/24 10:43:46;;;;;;;26.73;23.80;;;18.50;66.90;;;;;;5044639;28;20737;-79
2022/03/24 10:46:15;;;;;;;26.43;23.60;;;18.70;66.20;;;;;;5048210;28;20626;-80
2022/03/24 10:48:42;;;;;;;27.20;23.60;;;19.00;65.70;;;;;;5049544;28;20784;-80
2022/03/24 10:51:10;;;;;;;30.10;27.13;;;19.20;64.40;;;;;;5046775;28;20641;-81
2022/03/24 10:53:41;;;;;;;31.07;25.97;;;19.30;63.00;;;;;;5044645;28;20629;-78
2022/03/24 10:56:13;;;;;;;28.63;25.80;;;19.50;61.90;;;;;;5046910;28;21193;-79
2022/03/24 10:58:43;;;;;;;34.37;27.87;;;19.70;60.40;;;;;;5037980;28;20625;-79
2022/03/24 11:01:12;;;;;;;29.90;26.10;;;19.90;58.50;;;;;;5043407;28;20672;-80
2022/03/24 11:03:41;;;;;;;31.30;27.87;;;20.10;57.80;;;;;;5045159;28;20641;-80
2022/03/24 11:06:14;;;;;;;28.00;25.00;;;20.20;56.80;;;;;;5043365;28;20626;-81
2022/03/24 11:08:42;;;;;;;27.90;24.60;;;20.40;55.50;;;;;;5042555;28;21001;-79
2022/03/24 11:11:11;;;;;;;29.57;25.13;;;20.70;53.90;;;;;;5039774;28;20624;-79
2022/03/24 11:13:44;;;;;;;25.70;23.20;;;21.00;53.20;;;;;;5049761;28;21236;-80
2022/03/24 11:16:12;;;;;;;26.40;23.63;;;21.30;51.00;;;;;;5043748;28;21066;-80
2022/03/24 11:18:41;;;;;;;24.60;22.40;;;21.30;50.10;;;;;;5036948;28;21251;-80
2022/03/24 11:21:16;;;;;;;23.67;21.37;;;21.60;49.40;;;;;;5045562;28;21228;-80
2022/03/24 11:23:45;;;;;;;22.80;20.50;;;22.00;45.60;;;;;;5044522;28;20621;-79
2022/03/24 11:26:14;;;;;;;23.47;21.30;;;22.00;43.70;;;;;;5045601;28;20622;-80
2022/03/24 11:28:41;;;;;;;23.13;20.70;;;22.20;42.80;;;;;;5037838;28;20642;-80
2022/03/24 11:31:10;;;;;;;21.70;19.83;;;22.30;41.60;;;;;;5048669;28;20633;-79
2022/03/24 11:33:43;;;;;;;21.53;19.53;;;22.40;40.70;;;;;;5047735;28;20610;-79
2022/03/24 11:36:10;;;;;;;22.13;20.13;;;22.60;40.20;;;;;;5039695;28;20618;-80
2022/03/24 11:38:40;;;;;;;20.27;18.37;;;22.90;39.80;;;;;;5036481;28;20629;-79
2022/03/24 11:41:12;;;;;;;18.93;16.83;;;22.90;39.40;;;;;;5048849;28;20975;-80
2022/03/24 11:43:45;;;;;;;17.47;15.97;;;23.10;39.60;;;;;;5045650;28;20724;-80
2022/03/24 11:46:14;;;;;;;17.37;15.57;;;23.50;37.20;;;;;;5045555;28;20626;-79
2022/03/24 11:48:43;;;;;;;17.07;15.67;;;23.90;37.00;;;;;;5044848;28;20641;-80
2022/03/24 11:51:20;;;;;;;19.33;17.83;;;24.40;35.40;;;;;;5046292;28;20636;-80
2022/03/24 11:54:02;;;;;;;19.77;18.00;;;24.90;35.20;;;;;;5034139;28;21212;-80
2022/03/24 11:56:29;;;;;;;17.43;15.87;;;25.30;33.90;;;;;;5044288;28;20657;-80
2022/03/24 11:59:21;;;;;;;19.17;17.47;;;25.50;33.80;;;;;;5037533;28;20613;-80
2022/03/24 12:02:14;;;;;;;18.23;16.67;;;25.80;33.30;;;;;;5031084;28;20727;-80
2022/03/24 12:04:50;;;;;;;18.87;17.27;;;26.40;32.90;;;;;;5047130;28;20680;-80
2022/03/24 12:07:18;;;;;;;20.00;18.27;;;26.70;31.70;;;;;;5040545;28;20654;-80
2022/03/24 12:09:57;;;;;;;19.57;17.97;;;26.90;31.80;;;;;;5036216;28;21077;-80
2022/03/24 12:12:24;;;;;;;19.80;17.83;;;27.30;31.70;;;;;;5044200;28;20641;-80
2022/03/24 12:14:54;;;;;;;20.00;18.43;;;27.40;31.30;;;;;;5048593;28;20621;-79
2022/03/24 12:17:25;;;;;;;18.90;17.50;;;27.60;30.00;;;;;;5048104;28;20754;-81
2022/03/24 12:19:54;;;;;;;19.23;17.43;;;27.80;29.70;;;;;;5046970;28;20649;-81
2022/03/24 12:22:36;;;;;;;17.80;16.23;;;27.70;28.80;;;;;;5049377;28;20629;-81
2022/03/24 12:25:30;;;;;;;18.27;16.77;;;27.50;28.20;;;;;;5045687;28;20638;-81
2022/03/24 12:28:00;;;;;;;17.23;15.73;;;27.10;28.40;;;;;;5045853;28;20654;-80
2022/03/24 12:30:28;;;;;;;17.47;15.97;;;27.30;28.80;;;;;;5044886;28;20665;-81
2022/03/24 12:33:04;;;;;;;18.63;17.23;;;27.60;27.70;;;;;;5047091;28;20721;-80
2022/03/24 12:35:45;;;;;;;15.93;14.73;;;27.20;27.50;;;;;;5048385;28;20979;-80
2022/03/24 12:38:43;;;;;;;17.37;15.97;;;27.30;27.50;;;;;;5046776;28;21020;-80